createdAt,value
2023-10-13T00:02:12.085Z,100736.75
2023-10-13T00:05:14.706Z,100745.75
2023-10-13T00:08:18.799Z,100740.63
2023-10-13T00:11:23.048Z,100745.75
2023-10-13T00:14:34.272Z,100743.03
2023-10-13T00:17:39.797Z,100737.13
2023-10-13T00:20:51.312Z,100728.50
2023-10-13T00:23:54.057Z,100724.59
2023-10-13T00:26:56.887Z,100728.13
2023-10-13T00:30:21.165Z,100721.47
2023-10-13T00:33:24.245Z,100720.31
2023-10-13T00:36:26.590Z,100721.88
2023-10-13T00:39:30.079Z,100703.84
2023-10-13T00:42:52.131Z,100714.81
2023-10-13T00:45:58.133Z,100730.47
2023-10-13T00:49:01.387Z,100721.47
2023-10-13T00:52:03.870Z,100727.28
2023-10-13T00:55:09.579Z,100737.47
2023-10-13T00:58:13.787Z,100729.25
2023-10-13T01:01:19.326Z,100740.22
2023-10-13T01:04:24.433Z,100726.53
2023-10-13T01:07:26.916Z,100737.47
2023-10-13T01:10:33.527Z,100731.22
2023-10-13T01:13:38.376Z,100724.94
2023-10-13T01:16:47.235Z,100741.75
2023-10-13T01:19:50.385Z,100743.31
2023-10-13T01:22:59.056Z,100754.66
2023-10-13T01:26:06.230Z,100750.38
2023-10-13T01:29:14.898Z,100729.22
2023-10-13T01:32:19.569Z,100738.63
2023-10-13T01:35:27.757Z,100726.09
2023-10-13T01:38:34.502Z,100736.66
2023-10-13T01:41:40.250Z,100748.00
2023-10-13T01:44:42.618Z,100740.97
2023-10-13T01:47:47.874Z,100745.25
2023-10-13T01:50:57.245Z,100747.19
2023-10-13T01:53:59.971Z,100735.06
2023-10-13T01:57:04.894Z,100734.69
2023-10-13T02:00:20.262Z,100734.31
2023-10-13T02:03:23.104Z,100741.38
2023-10-13T02:06:25.675Z,100737.06
2023-10-13T02:09:28.121Z,100730.00
2023-10-13T02:12:37.016Z,100743.31
2023-10-13T02:15:43.875Z,100753.06
2023-10-13T02:18:52.579Z,100743.28
2023-10-13T02:22:00.053Z,100732.38
2023-10-13T02:25:07.030Z,100734.69
2023-10-13T02:28:14.993Z,100750.75
2023-10-13T02:31:19.131Z,100761.69
2023-10-13T02:34:24.371Z,100754.63
2023-10-13T02:37:29.067Z,100774.22
2023-10-13T02:40:36.757Z,100779.69
2023-10-13T02:43:39.456Z,100792.56
2023-10-13T02:46:41.963Z,100792.59
2023-10-13T02:49:45.116Z,100777.72
2023-10-13T02:52:51.167Z,100787.91
2023-10-13T02:56:07.235Z,100775.78
2023-10-13T02:59:09.574Z,100769.91
2023-10-13T03:02:29.347Z,100760.91
2023-10-13T03:05:36.667Z,100738.22
2023-10-13T03:08:39.756Z,100724.91
2023-10-13T03:11:52.175Z,100718.66
2023-10-13T03:14:58.390Z,100708.09
2023-10-13T03:18:00.906Z,100715.91
2023-10-13T03:21:03.895Z,100715.13
2023-10-13T03:24:07.905Z,100707.72
2023-10-13T03:27:10.728Z,100719.44
2023-10-13T03:30:16.384Z,100717.03
2023-10-13T03:33:27.077Z,100720.22
2023-10-13T03:36:47.866Z,100717.88
2023-10-13T03:39:53.662Z,100715.53
2023-10-13T03:43:13.732Z,100711.22
2023-10-13T03:46:19.560Z,100696.75
2023-10-13T03:49:23.238Z,100694.44
2023-10-13T03:52:26.788Z,100684.25
2023-10-13T03:55:35.847Z,100678.72
2023-10-13T03:58:48.437Z,100677.59
2023-10-13T04:02:00.346Z,100674.47
2023-10-13T04:05:09.581Z,100669.38
2023-10-13T04:08:27.038Z,100674.88
2023-10-13T04:11:47.784Z,100677.22
2023-10-13T04:14:59.113Z,100671.38
2023-10-13T04:18:01.995Z,100667.47
2023-10-13T04:21:20.084Z,100660.81
2023-10-13T04:24:41.077Z,100678.41
2023-10-13T04:27:55.483Z,100670.97
2023-10-13T04:30:58.345Z,100678.41
2023-10-13T04:34:03.716Z,100687.38
2023-10-13T04:37:35.116Z,100682.31
2023-10-13T04:40:57.126Z,100686.97
2023-10-13T04:44:28.858Z,100688.16
2023-10-13T04:47:42.264Z,100684.25
2023-10-13T04:50:51.532Z,100709.28
2023-10-13T04:54:12.196Z,100701.81
2023-10-13T04:57:35.205Z,100695.59
2023-10-13T05:01:15.961Z,100709.28
2023-10-13T05:04:37.236Z,100717.09
2023-10-13T05:07:59.071Z,100721.00
2023-10-13T05:11:24.617Z,100728.03
2023-10-13T05:14:45.587Z,100736.25
2023-10-13T05:18:06.626Z,100742.94
2023-10-13T05:21:27.647Z,100748.47
2023-10-13T05:24:49.042Z,100757.09
2023-10-13T05:28:14.241Z,100765.22
2023-10-13T05:31:40.720Z,100790.38
2023-10-13T05:35:04.873Z,100782.94
2023-10-13T05:38:25.758Z,100784.56
2023-10-13T05:41:46.400Z,100793.19
2023-10-13T05:45:17.965Z,100788.88
2023-10-13T05:48:35.458Z,100794.44
2023-10-13T05:51:40.716Z,100781.91
2023-10-13T05:55:01.755Z,100785.88
2023-10-13T05:58:23.090Z,100805.44
2023-10-13T06:01:44.175Z,100783.97
2023-10-13T06:05:05.341Z,100809.84
2023-10-13T06:08:26.650Z,100804.81
2023-10-13T06:11:47.538Z,100826.31
2023-10-13T06:15:08.199Z,100819.25
2023-10-13T06:18:28.914Z,100812.22
2023-10-13T06:21:49.902Z,100833.34
2023-10-13T06:25:11.170Z,100833.75
2023-10-13T06:28:32.194Z,100840.41
2023-10-13T06:31:36.502Z,100845.53
2023-10-13T06:34:43.828Z,100838.50
2023-10-13T06:37:46.427Z,100855.75
2023-10-13T06:40:53.750Z,100855.34
2023-10-13T06:44:01.858Z,100862.41
2023-10-13T06:47:05.573Z,100853.34
2023-10-13T06:50:16.833Z,100859.25
2023-10-13T06:53:22.830Z,100852.22
2023-10-13T06:56:31.785Z,100860.84
2023-10-13T06:59:37.812Z,100867.94
2023-10-13T07:02:40.508Z,100864.47
2023-10-13T07:05:43.316Z,100856.28
2023-10-13T07:08:50.418Z,100860.22
2023-10-13T07:11:54.053Z,100850.47
2023-10-13T07:15:04.735Z,100863.41
2023-10-13T07:18:07.480Z,100866.19
2023-10-13T07:21:13.273Z,100866.19
2023-10-13T07:24:17.144Z,100865.50
2023-10-13T07:27:26.633Z,100862.16
2023-10-13T07:30:29.341Z,100862.28
2023-10-13T07:33:32.519Z,100863.22
2023-10-13T07:36:40.582Z,100868.44
2023-10-13T07:39:45.967Z,100885.38
2023-10-13T07:42:48.499Z,100873.69
2023-10-13T07:46:00.020Z,100871.34
2023-10-13T07:49:21.705Z,100869.44
2023-10-13T07:52:31.058Z,100860.06
2023-10-13T07:55:35.119Z,100862.81
2023-10-13T07:58:49.395Z,100851.03
2023-10-13T08:02:14.735Z,100863.63
2023-10-13T08:05:40.091Z,100854.19
2023-10-13T08:08:45.112Z,100867.53
2023-10-13T08:11:47.585Z,100861.66
2023-10-13T08:15:13.049Z,100860.47
2023-10-13T08:18:31.376Z,100854.19
2023-10-13T08:21:35.335Z,100869.50
2023-10-13T08:24:40.692Z,100861.66
2023-10-13T08:28:06.201Z,100862.03
2023-10-13T08:31:23.390Z,100864.41
2023-10-13T08:34:26.732Z,100864.38
2023-10-13T08:37:57.344Z,100862.03
2023-10-13T13:15:47.514Z,100682.97
2023-10-13T13:18:49.907Z,100684.94
2023-10-13T13:21:52.317Z,100679.44
2023-10-13T13:24:54.702Z,100686.50
2023-10-13T13:27:58.729Z,100683.75
2023-10-13T13:31:01.183Z,100681.00
2023-10-13T13:34:05.220Z,100684.53
2023-10-13T13:37:07.599Z,100679.44
2023-10-13T13:40:19.448Z,100668.44
2023-10-13T13:43:33.248Z,100662.97
2023-10-13T13:46:42.344Z,100658.25
2023-10-13T13:49:52.946Z,100658.25
2023-10-13T13:53:01.458Z,100649.25
2023-10-13T13:56:04.299Z,100653.16
2023-10-13T13:59:10.606Z,100653.16
2023-10-13T14:02:22.221Z,100655.13
2023-10-13T14:05:24.743Z,100649.63
2023-10-13T14:08:28.651Z,100644.91
2023-10-13T14:11:41.340Z,100651.19
2023-10-13T14:14:51.238Z,100649.63
2023-10-13T14:17:53.726Z,100646.09
2023-10-13T14:20:57.309Z,100636.28
2023-10-13T14:24:02.033Z,100644.53
2023-10-13T14:27:19.046Z,100651.97
2023-10-13T14:30:22.946Z,100645.31
2023-10-13T14:33:27.015Z,100648.44
2023-10-13T14:36:36.077Z,100648.84
2023-10-13T14:39:38.663Z,100639.03
2023-10-13T14:42:44.033Z,100641.78
2023-10-13T14:45:46.523Z,100637.84
2023-10-13T14:48:50.149Z,100641.00
2023-10-13T14:51:52.540Z,100644.91
2023-10-13T14:54:58.196Z,100633.53
2023-10-13T14:58:00.635Z,100629.63
2023-10-13T15:01:04.490Z,100640.59
2023-10-13T15:04:06.922Z,100628.06
2023-10-13T15:07:09.333Z,100622.56
2023-10-13T15:10:20.584Z,100634.31
2023-10-13T15:13:23.971Z,100629.63
2023-10-13T15:16:28.338Z,100628.03
2023-10-13T15:19:37.206Z,100628.44
2023-10-13T15:22:39.781Z,100628.81
2023-10-13T15:25:50.603Z,100623.34
2023-10-13T15:28:54.783Z,100617.84
2023-10-13T15:31:57.296Z,100617.06
2023-10-13T15:35:00.814Z,100617.84
2023-10-13T15:38:03.428Z,100615.50
2023-10-13T15:41:09.406Z,100621.38
2023-10-13T15:44:14.369Z,100601.78
2023-10-13T15:50:23.098Z,100619.41
2023-10-13T15:53:26.685Z,100622.94
2023-10-13T15:56:29.182Z,100617.84
2023-10-13T15:59:31.751Z,100622.94
2023-10-13T16:02:34.228Z,100628.03
2023-10-13T16:05:38.358Z,100626.84
2023-10-13T16:08:44.066Z,100619.78
2023-10-13T16:11:47.154Z,100627.25
2023-10-13T16:14:49.548Z,100628.00
2023-10-13T16:17:55.085Z,100629.59
2023-10-13T16:20:57.544Z,100635.06
2023-10-13T16:23:59.996Z,100637.81
2023-10-13T16:27:02.455Z,100631.94
2023-10-13T16:30:05.248Z,100630.75
2023-10-13T16:33:07.632Z,100632.72
2023-10-13T16:36:11.499Z,100640.16
2023-10-13T16:39:17.919Z,100640.16
2023-10-13T16:42:20.531Z,100635.06
2023-10-13T16:45:23.080Z,100625.63
2023-10-13T16:48:27.932Z,100627.19
2023-10-13T16:51:30.539Z,100632.28
2023-10-13T16:54:33.030Z,100628.75
2023-10-13T16:57:35.822Z,100630.31
2023-10-13T17:00:39.378Z,100634.25
2023-10-13T17:03:46.267Z,100629.94
2023-10-13T17:06:48.896Z,100626.34
2023-10-13T17:09:52.439Z,100627.13
2023-10-13T17:12:55.556Z,100634.97
2023-10-13T17:16:00.832Z,100619.28
2023-10-13T17:19:03.387Z,100625.56
2023-10-13T17:22:05.946Z,100627.91
2023-10-13T17:25:08.600Z,100619.28
2023-10-13T17:28:16.740Z,100608.28
2023-10-13T17:31:19.426Z,100610.63
2023-10-13T17:34:22.552Z,100609.06
2023-10-13T17:37:25.118Z,100605.16
2023-10-13T17:40:28.818Z,100617.69
2023-10-13T17:43:36.396Z,100606.69
2023-10-13T17:46:41.144Z,100609.84
2023-10-13T17:49:43.647Z,100614.16
2023-10-13T17:52:49.293Z,100609.03
2023-10-13T17:55:53.229Z,100616.50
2023-10-13T17:58:56.423Z,100607.47
2023-10-13T18:01:59.252Z,100610.22
2023-10-13T18:05:01.708Z,100612.53
2023-10-13T18:08:04.707Z,100601.19
2023-10-13T18:11:07.490Z,100612.16
2023-10-13T18:14:12.798Z,100615.66
2023-10-13T18:17:17.217Z,100615.28
2023-10-13T18:20:21.954Z,100628.19
2023-10-13T18:23:24.391Z,100616.81
2023-10-13T18:26:26.819Z,100603.50
2023-10-13T18:29:29.270Z,100598.78
2023-10-13T18:32:31.646Z,100602.72
2023-10-13T18:35:34.605Z,100610.53
2023-10-13T18:38:37.027Z,100603.09
2023-10-13T18:41:39.738Z,100599.94
2023-10-13T18:44:42.342Z,100596.44
2023-10-13T18:47:46.436Z,100604.66
2023-10-13T18:50:49.803Z,100591.69
2023-10-13T18:53:52.184Z,100594.84
2023-10-13T18:56:55.632Z,100607.38
2023-10-13T18:59:57.965Z,100610.13
2023-10-13T19:03:04.867Z,100603.44
2023-10-13T19:06:07.263Z,100608.13
2023-10-13T19:09:10.161Z,100602.28
2023-10-13T19:12:12.766Z,100596.78
2023-10-13T19:15:16.016Z,100594.03
2023-10-13T19:18:18.423Z,100610.88
2023-10-13T19:21:21.743Z,100598.69
2023-10-13T19:24:24.254Z,100596.75
2023-10-13T19:27:29.563Z,100590.84
2023-10-13T19:30:34.051Z,100594.78
2023-10-13T19:33:36.490Z,100601.06
2023-10-13T19:36:39.037Z,100599.47
2023-10-13T19:39:44.580Z,100597.09
2023-10-13T19:42:47.269Z,100597.09
2023-10-13T19:45:49.931Z,100604.94
2023-10-13T19:48:52.483Z,100609.63
2023-10-13T19:51:59.180Z,100598.66
2023-10-13T19:55:01.687Z,100605.69
2023-10-13T19:58:05.316Z,100593.94
2023-10-13T20:01:09.223Z,100610.38
2023-10-13T20:04:13.816Z,100602.16
2023-10-13T20:07:17.592Z,100600.59
2023-10-13T20:10:20.916Z,100606.84
2023-10-13T20:13:23.873Z,100609.97
2023-10-13T20:16:26.555Z,100613.50
2023-10-13T20:19:29.056Z,100605.28
2023-10-13T20:22:31.478Z,100600.19
2023-10-13T20:25:33.961Z,100599.78
2023-10-13T20:28:36.535Z,100590.78
2023-10-13T20:31:39.190Z,100593.91
2023-10-13T20:34:42.756Z,100604.88
2023-10-13T20:37:45.160Z,100602.88
2023-10-13T20:40:58.998Z,100603.28
2023-10-13T20:44:01.880Z,100596.22
2023-10-13T20:47:07.968Z,100595.44
2023-10-13T20:50:11.658Z,100588.00
2023-10-13T20:53:15.340Z,100596.22
2023-10-13T20:56:17.727Z,100592.72
2023-10-13T20:59:20.589Z,100583.69
2023-10-13T21:02:23.752Z,100586.84
2023-10-13T21:05:26.238Z,100579.78
2023-10-13T21:08:28.697Z,100574.28
2023-10-13T21:11:31.109Z,100578.19
2023-10-13T21:14:35.400Z,100575.84
2023-10-13T21:17:38.050Z,100578.97
2023-10-13T21:20:42.408Z,100574.25
2023-10-13T21:23:44.893Z,100567.16
2023-10-13T21:26:50.404Z,100575.41
2023-10-13T21:29:52.802Z,100569.53
2023-10-13T21:32:59.221Z,100562.88
2023-10-13T21:36:15.101Z,100557.41
2023-10-13T21:39:17.494Z,100553.47
2023-10-13T21:42:19.853Z,100571.84
2023-10-13T21:45:22.215Z,100562.06
2023-10-13T21:48:24.606Z,100564.81
2023-10-13T21:51:27.937Z,100550.31
2023-10-13T21:54:30.400Z,100560.09
2023-10-13T21:57:32.860Z,100553.84
2023-10-13T22:00:35.320Z,100549.94
2023-10-13T22:03:37.878Z,100555.78
2023-10-13T22:06:42.453Z,100542.47
2023-10-13T22:09:47.527Z,100547.56
2023-10-13T22:12:50.660Z,100556.97
2023-10-13T22:15:53.060Z,100560.88
2023-10-13T22:18:58.189Z,100552.25
2023-10-13T22:22:02.139Z,100557.72
2023-10-13T22:25:12.424Z,100551.06
2023-10-13T22:28:15.227Z,100553.81
2023-10-13T22:31:23.340Z,100552.25
2023-10-13T22:34:26.958Z,100552.25
2023-10-13T22:37:29.412Z,100552.63
2023-10-13T22:40:32.123Z,100554.19
2023-10-13T22:43:35.133Z,100554.56
2023-10-13T22:46:37.583Z,100551.84
2023-10-13T22:49:40.849Z,100544.38
2023-10-13T22:52:44.835Z,100565.91
2023-10-13T22:55:47.444Z,100557.69
2023-10-13T22:58:49.808Z,100549.06
2023-10-13T23:01:52.291Z,100544.78
2023-10-13T23:04:54.663Z,100540.09
2023-10-13T23:08:09.660Z,100542.44
2023-10-13T23:11:16.440Z,100525.59
2023-10-13T23:14:19.831Z,100533.03
2023-10-13T23:17:22.590Z,100540.47
2023-10-13T23:20:25.050Z,100531.06
2023-10-13T23:23:27.428Z,100531.44
2023-10-13T23:26:30.160Z,100543.59
2023-10-13T23:29:32.609Z,100534.56
2023-10-13T23:32:34.997Z,100538.88
2023-10-13T23:35:37.366Z,100527.91
2023-10-13T23:38:40.739Z,100521.22
2023-10-13T23:41:43.430Z,100533.41
2023-10-13T23:44:48.007Z,100521.63
2023-10-13T23:47:51.325Z,100508.72
2023-10-13T23:51:00.810Z,100509.91
2023-10-13T23:54:18.293Z,100505.22
2023-10-13T23:57:24.943Z,100496.63
